Time;durP1;ratioP1;P1;durP2;ratioP2;P2;SDS_P1;SDS_P2;PMS_P1;PMS_P2;Temp;Humidity;BMP_temperature;BMP_pressure;BME280_temperature;BME280_humidity;BME280_pressure;Samples;Min_cycle;Max_cycle;Signal;HPM_P1;HPM_P2
2020/12/10 00:00:16;;;;;;;58.02;29.92;;;;;;;-1.08;81.28;95860.16;1736497;82;21128;-85
2020/12/10 00:02:44;;;;;;;83.87;42.88;;;;;;;-1.11;81.19;95860.88;1735563;81;21324;-84
2020/12/10 00:05:11;;;;;;;78.87;42.25;;;;;;;-1.21;81.26;95862.06;1744253;82;21245;-83
2020/12/10 00:07:37;;;;;;;74.67;39.92;;;;;;;-1.30;81.25;95859.80;1739880;82;21337;-84
2020/12/10 00:10:07;;;;;;;78.37;43.10;;;;;;;-1.31;81.51;95860.70;1728813;82;21095;-83
2020/12/10 00:12:34;;;;;;;85.22;41.92;;;;;;;-1.33;81.61;95862.56;1684005;84;21176;-84
2020/12/10 00:15:00;;;;;;;75.78;40.95;;;;;;;-1.28;81.82;95864.30;1739836;82;21075;-83
2020/12/10 00:17:29;;;;;;;58.95;32.55;;;;;;;-1.26;81.81;95859.89;1725586;81;21315;-83
2020/12/10 00:19:55;;;;;;;71.02;38.30;;;;;;;-1.33;81.60;95861.28;1715487;82;21129;-83
2020/12/10 00:22:23;;;;;;;66.28;35.83;;;;;;;-1.34;81.80;95857.59;1727151;82;21118;-83
2020/12/10 00:24:49;;;;;;;79.07;40.65;;;;;;;-1.31;81.90;95856.06;1694361;83;21288;-83
2020/12/10 00:27:26;;;;;;;72.87;37.78;;;;;;;-1.26;81.98;95856.06;1746800;82;21115;-84
2020/12/10 00:29:52;;;;;;;70.08;38.73;;;;;;;-1.22;81.97;95851.05;1713135;82;21124;-83
2020/12/10 00:32:18;;;;;;;47.15;25.10;;;;;;;-1.21;81.76;95852.67;1732102;81;21369;-83
2020/12/10 00:34:45;;;;;;;72.75;38.70;;;;;;;-1.25;81.56;95849.22;1733914;82;21087;-84
2020/12/10 00:37:12;;;;;;;65.45;33.58;;;;;;;-1.30;81.75;95847.05;1748238;82;21297;-84
2020/12/10 00:39:38;;;;;;;65.72;35.65;;;;;;;-1.28;81.75;95843.10;1678870;84;21378;-83
2020/12/10 00:42:04;;;;;;;69.10;36.50;;;;;;;-1.28;81.87;95836.27;1747882;82;21087;-83
2020/12/10 00:44:31;;;;;;;50.23;26.55;;;;;;;-1.23;81.88;95837.97;1727664;82;21079;-84
2020/12/10 00:46:57;;;;;;;51.18;30.05;;;;;;;-1.22;81.76;95835.76;1712462;82;21114;-83
2020/12/10 00:49:23;;;;;;;57.15;31.30;;;;;;;-1.33;81.65;95828.16;1736466;82;21258;-84
2020/12/10 00:51:50;;;;;;;60.00;32.90;;;;;;;-1.40;81.54;95827.03;1731831;82;21361;-83
2020/12/10 00:54:16;;;;;;;57.43;31.30;;;;;;;-1.37;81.78;95825.98;1726914;82;21353;-83
2020/12/10 00:56:43;;;;;;;64.47;33.18;;;;;;;-1.44;81.60;95824.86;1751090;80;21732;-84
2020/12/10 00:59:09;;;;;;;54.48;27.48;;;;;;;-1.46;81.75;95818.61;1763738;80;21110;-84
2020/12/10 01:01:36;;;;;;;56.77;34.35;;;;;;;-1.42;81.92;95814.88;1751504;80;21252;-83
2020/12/10 01:04:02;;;;;;;62.15;33.30;;;;;;;-1.47;81.72;95803.42;1750327;80;21127;-83
2020/12/10 01:06:28;;;;;;;55.25;29.07;;;;;;;-1.46;81.80;95805.06;1762389;80;21097;-83
2020/12/10 01:08:54;;;;;;;63.17;32.98;;;;;;;-1.52;81.79;95792.33;1740243;80;21353;-84
2020/12/10 01:11:26;;;;;;;65.65;32.53;;;;;;;-1.54;81.71;95812.84;1757242;80;21125;-84
2020/12/10 01:13:56;;;;;;;64.97;34.18;;;;;;;-1.54;81.75;95814.58;1761054;80;21136;-84
2020/12/10 01:16:23;;;;;;;58.28;31.93;;;;;;;-1.52;81.92;95810.97;1764272;80;21107;-83
2020/12/10 01:18:50;;;;;;;57.35;30.05;;;;;;;-1.49;81.75;95805.28;1764123;80;21118;-84
2020/12/10 01:21:33;;;;;;;56.80;31.23;;;;;;;-1.47;81.77;95798.33;1756246;80;22420;-83
2020/12/10 01:24:00;;;;;;;54.27;29.57;;;;;;;-1.46;81.74;95799.97;1768352;80;21134;-84
2020/12/10 01:26:29;;;;;;;37.60;19.92;;;;;;;-1.44;81.83;95803.20;1758802;80;21129;-83
2020/12/10 01:28:55;;;;;;;35.92;20.95;;;;;;;-1.48;81.68;95801.80;1753944;80;21358;-84
2020/12/10 01:31:21;;;;;;;50.25;27.05;;;;;;;-1.64;81.54;95800.47;1758416;80;21391;-84
2020/12/10 01:33:47;;;;;;;50.98;30.45;;;;;;;-1.72;81.69;95793.10;1756425;80;21124;-84
2020/12/10 01:36:28;;;;;;;32.65;18.62;;;;;;;-1.76;81.75;95787.45;1764885;80;21112;-84
2020/12/10 01:38:55;;;;;;;33.40;21.83;;;;;;;-1.75;81.96;95790.80;1764640;80;21233;-84
2020/12/10 01:41:23;;;;;;;52.88;29.18;;;;;;;-1.83;82.06;95796.48;1757583;80;21338;-84
2020/12/10 01:43:49;;;;;;;53.58;28.12;;;;;;;-1.89;82.12;95786.32;1746805;80;21089;-84
2020/12/10 01:46:15;;;;;;;53.80;28.52;;;;;;;-1.88;82.27;95781.57;1766315;80;21106;-84
2020/12/10 01:48:43;;;;;;;37.73;20.37;;;;;;;-1.99;82.12;95773.95;1763729;80;21316;-85
2020/12/10 01:51:09;;;;;;;43.87;23.90;;;;;;;-1.94;82.46;95783.33;1756173;80;21134;-84
2020/12/10 01:53:36;;;;;;;51.45;28.92;;;;;;;-1.93;82.33;95782.41;1756521;80;21377;-83
2020/12/10 01:56:02;;;;;;;47.17;25.77;;;;;;;-1.91;82.35;95778.00;1756460;80;21153;-84
2020/12/10 01:58:28;;;;;;;42.38;23.57;;;;;;;-1.91;82.24;95784.83;1763894;80;21466;-85
2020/12/10 02:00:56;;;;;;;53.50;29.82;;;;;;;-1.88;82.57;95786.66;1769184;80;21077;-84
2020/12/10 02:03:22;;;;;;;52.90;26.95;;;;;;;-1.96;82.25;95779.27;1762484;80;21090;-83
2020/12/10 02:05:48;;;;;;;49.77;27.20;;;;;;;-1.99;82.39;95765.04;1770229;80;21305;-84
2020/12/10 02:08:15;;;;;;;51.63;27.37;;;;;;;-1.92;82.41;95771.29;1768552;80;21390;-85
2020/12/10 02:10:41;;;;;;;48.35;27.22;;;;;;;-1.90;82.27;95773.71;1764230;80;21479;-84
2020/12/10 02:13:07;;;;;;;52.88;30.72;;;;;;;-1.88;82.24;95781.57;1762626;80;21134;-84
2020/12/10 02:15:33;;;;;;;49.35;26.25;;;;;;;-1.86;82.15;95779.70;1773966;80;21097;-84
2020/12/10 02:18:05;;;;;;;32.48;18.25;;;;;;;-1.84;82.12;95786.76;1766305;80;21109;-84
2020/12/10 02:20:32;;;;;;;46.58;26.35;;;;;;;-1.82;82.22;95782.35;1770505;80;21398;-84
2020/12/10 02:23:04;;;;;;;46.40;25.65;;;;;;;-1.83;81.99;95775.64;1766816;80;21109;-84
2020/12/10 02:25:31;;;;;;;43.70;26.57;;;;;;;-1.81;81.87;95767.88;1767486;80;21141;-83
2020/12/10 02:28:05;;;;;;;50.00;25.40;;;;;;;-1.83;81.86;95769.27;1759828;80;21110;-84
2020/12/10 02:30:31;;;;;;;52.50;26.37;;;;;;;-1.82;81.81;95766.27;1768919;80;21228;-84
2020/12/10 02:33:01;;;;;;;50.25;26.33;;;;;;;-1.87;81.77;95765.36;1762444;80;21327;-84
2020/12/10 02:35:31;;;;;;;42.33;23.65;;;;;;;-1.86;81.88;95760.61;1762667;80;21256;-84
2020/12/10 02:37:58;;;;;;;46.75;25.65;;;;;;;-1.79;81.86;95766.48;1759561;80;21129;-84
2020/12/10 02:40:27;;;;;;;42.73;25.52;;;;;;;-1.89;81.62;95762.13;1766744;80;21101;-84
2020/12/10 02:42:53;;;;;;;42.98;24.52;;;;;;;-1.90;81.82;95755.89;1760614;80;21161;-84
2020/12/10 02:45:20;;;;;;;47.08;25.70;;;;;;;-1.90;81.74;95754.15;1771804;80;21113;-83
2020/12/10 02:47:46;;;;;;;50.28;26.60;;;;;;;-1.88;81.75;95754.83;1774458;80;21313;-83
2020/12/10 02:50:13;;;;;;;40.65;23.32;;;;;;;-1.86;81.73;95754.24;1758671;80;21347;-84
2020/12/10 02:52:39;;;;;;;47.33;26.40;;;;;;;-1.92;81.51;95749.64;1758609;80;21139;-83
2020/12/10 02:55:06;;;;;;;38.55;22.27;;;;;;;-1.93;81.76;95740.39;1769539;80;21087;-84
2020/12/10 02:57:32;;;;;;;42.17;25.60;;;;;;;-1.94;81.59;95745.14;1761966;80;21113;-83
2020/12/10 02:59:58;;;;;;;45.52;24.60;;;;;;;-2.00;81.61;95739.70;1739987;80;21089;-83
2020/12/10 03:02:24;;;;;;;43.20;23.98;;;;;;;-2.08;81.67;95727.59;1757928;80;21379;-84
2020/12/10 03:04:50;;;;;;;47.13;26.00;;;;;;;-2.15;81.72;95722.62;1757417;80;21495;-84
2020/12/10 03:07:16;;;;;;;46.18;27.75;;;;;;;-2.19;81.94;95726.34;1763019;80;21288;-84
2020/12/10 03:09:43;;;;;;;48.05;25.75;;;;;;;-2.12;82.13;95727.03;1690035;83;21301;-83
2020/12/10 03:12:10;;;;;;;42.38;25.35;;;;;;;-2.09;82.03;95727.25;1763758;80;21138;-84
2020/12/10 03:14:36;;;;;;;43.13;25.32;;;;;;;-2.05;82.05;95719.70;1753552;80;21133;-84
2020/12/10 03:17:03;;;;;;;43.35;24.63;;;;;;;-2.03;81.90;95720.86;1758923;80;21251;-84
2020/12/10 03:19:29;;;;;;;41.33;23.75;;;;;;;-2.00;81.86;95719.34;1764001;80;21386;-84
2020/12/10 03:21:55;;;;;;;39.35;22.32;;;;;;;-2.01;81.67;95718.53;1760457;80;21635;-84
2020/12/10 03:24:21;;;;;;;38.83;22.82;;;;;;;-2.00;81.70;95717.59;1759967;80;21120;-83
2020/12/10 03:26:47;;;;;;;52.25;26.97;;;;;;;-2.02;81.60;95719.46;1760804;80;21074;-84
2020/12/10 03:29:13;;;;;;;39.05;23.75;;;;;;;-2.05;81.64;95706.98;1760592;80;21138;-84
2020/12/10 03:31:40;;;;;;;42.53;24.43;;;;;;;-2.04;81.74;95716.70;1754694;80;21132;-84
2020/12/10 03:34:06;;;;;;;41.13;22.62;;;;;;;-2.04;81.78;95716.23;1757555;80;21313;-84
2020/12/10 03:36:53;;;;;;;43.25;24.80;;;;;;;-2.06;81.62;95711.73;1759872;80;21116;-83
2020/12/10 03:39:20;;;;;;;44.42;25.52;;;;;;;-2.14;81.66;95712.31;1758985;80;21111;-84
2020/12/10 03:41:47;;;;;;;41.80;22.70;;;;;;;-2.15;81.72;95708.16;1753471;80;21125;-84
2020/12/10 03:44:13;;;;;;;41.77;24.35;;;;;;;-2.12;81.75;95709.64;1756661;80;21223;-83
2020/12/10 03:46:39;;;;;;;42.65;23.87;;;;;;;-2.14;81.68;95702.59;1759061;80;21466;-85
2020/12/10 03:49:06;;;;;;;43.55;24.75;;;;;;;-2.11;81.66;95704.92;1763243;80;21101;-84
2020/12/10 03:51:32;;;;;;;39.13;22.22;;;;;;;-2.12;81.68;95697.75;1768973;80;21130;-84
2020/12/10 03:53:58;;;;;;;24.37;13.53;;;;;;;-2.09;81.69;95706.88;1761121;80;21123;-83
2020/12/10 03:56:25;;;;;;;40.12;23.27;;;;;;;-2.12;81.67;95705.83;1760239;80;21101;-84
2020/12/10 03:58:51;;;;;;;35.98;21.55;;;;;;;-2.18;81.67;95712.68;1768644;80;21116;-84
2020/12/10 04:01:17;;;;;;;42.58;23.27;;;;;;;-2.22;81.69;95707.50;1759044;80;21120;-84
2020/12/10 04:03:43;;;;;;;40.83;23.60;;;;;;;-2.27;81.68;95714.69;1765288;80;21107;-84
2020/12/10 04:06:09;;;;;;;40.92;23.22;;;;;;;-2.30;81.92;95704.26;1768774;80;21316;-83
2020/12/10 04:08:36;;;;;;;40.50;23.38;;;;;;;-2.22;81.97;95707.50;1770680;80;21393;-84
2020/12/10 04:11:03;;;;;;;40.63;22.48;;;;;;;-2.16;81.85;95698.09;1766984;80;21687;-84
2020/12/10 04:13:29;;;;;;;33.38;20.52;;;;;;;-2.12;81.78;95699.03;1765859;80;21344;-83
2020/12/10 04:15:55;;;;;;;39.75;22.37;;;;;;;-2.10;81.59;95694.28;1761125;80;21232;-85
2020/12/10 04:18:21;;;;;;;34.70;19.35;;;;;;;-2.10;81.69;95693.81;1747333;80;21124;-84
2020/12/10 04:20:47;;;;;;;38.45;22.32;;;;;;;-2.12;81.52;95699.47;1763818;80;21100;-84
2020/12/10 04:23:13;;;;;;;31.17;18.05;;;;;;;-2.15;81.43;95700.52;1765361;80;21201;-84
2020/12/10 04:25:39;;;;;;;42.73;22.98;;;;;;;-2.16;81.43;95704.46;1766973;80;21396;-84
2020/12/10 04:28:05;;;;;;;44.25;24.32;;;;;;;-2.21;81.42;95698.47;1765445;80;21328;-84
2020/12/10 04:30:31;;;;;;;39.65;21.85;;;;;;;-2.22;81.47;95687.94;1763688;80;21355;-84
2020/12/10 04:32:57;;;;;;;39.45;21.95;;;;;;;-2.28;81.49;95687.59;1765452;80;21156;-84
2020/12/10 04:35:23;;;;;;;38.67;21.45;;;;;;;-2.32;81.67;95689.58;1770392;80;21153;-84
2020/12/10 04:37:59;;;;;;;36.65;20.77;;;;;;;-2.33;81.69;95688.43;1760904;80;21225;-84
2020/12/10 04:40:25;;;;;;;45.58;23.65;;;;;;;-2.33;81.70;95687.97;1750653;80;21108;-83
2020/12/10 04:42:53;;;;;;;39.63;21.42;;;;;;;-2.32;81.80;95688.30;1766452;80;21110;-84
2020/12/10 04:45:19;;;;;;;43.17;23.90;;;;;;;-2.29;81.82;95696.16;1760683;80;21232;-83
2020/12/10 04:47:45;;;;;;;39.33;23.10;;;;;;;-2.35;81.67;95692.83;1769363;80;21292;-85
2020/12/10 04:50:19;;;;;;;40.23;22.15;;;;;;;-2.32;81.91;95691.31;1744931;80;21114;-84
2020/12/10 04:52:44;;;;;;;36.08;21.65;;;;;;;-2.27;82.00;95683.69;1768203;80;21376;-84
2020/12/10 04:55:10;;;;;;;35.05;20.90;;;;;;;-2.20;82.00;95677.17;1762775;80;21107;-84
2020/12/10 04:57:39;;;;;;;38.15;19.67;;;;;;;-2.15;81.93;95672.52;1759280;80;21378;-84
2020/12/10 05:00:06;;;;;;;40.35;23.55;;;;;;;-2.16;81.71;95667.55;1745772;80;21081;-84
2020/12/10 05:02:32;;;;;;;37.58;21.35;;;;;;;-2.15;81.87;95663.61;1758069;80;21113;-84
2020/12/10 05:04:58;;;;;;;36.28;22.55;;;;;;;-2.08;81.79;95656.78;1751158;80;21135;-84
2020/12/10 05:07:39;;;;;;;36.75;23.15;;;;;;;-2.08;81.68;95655.05;1756418;80;21142;-84
2020/12/10 05:10:05;;;;;;;41.92;23.35;;;;;;;-2.10;81.60;95650.55;1768700;80;21963;-84
2020/12/10 05:12:31;;;;;;;39.18;23.07;;;;;;;-2.08;81.68;95655.51;1750084;80;21145;-83
2020/12/10 05:14:58;;;;;;;42.23;22.77;;;;;;;-2.13;81.56;95656.66;1756144;80;21122;-84
2020/12/10 05:17:23;;;;;;;39.08;23.75;;;;;;;-2.19;81.56;95656.34;1757838;80;21142;-84
2020/12/10 05:19:56;;;;;;;38.48;23.27;;;;;;;-2.19;81.63;95655.88;1734661;80;21465;-83
2020/12/10 05:22:22;;;;;;;42.62;22.82;;;;;;;-2.19;81.71;95652.06;1756655;80;21243;-84
2020/12/10 05:25:02;;;;;;;39.65;23.00;;;;;;;-2.15;81.68;95651.35;1757573;80;21234;-84
2020/12/10 05:27:28;;;;;;;39.78;23.22;;;;;;;-2.16;81.67;95654.36;1765188;80;21114;-84
2020/12/10 05:29:54;;;;;;;40.28;22.93;;;;;;;-2.18;81.58;95653.68;1757560;80;21365;-84
2020/12/10 05:32:40;;;;;;;38.33;22.70;;;;;;;-2.18;81.65;95652.88;1758165;80;21424;-84
2020/12/10 05:35:22;;;;;;;44.65;23.60;;;;;;;-2.18;81.87;95647.31;1757016;80;21116;-84
2020/12/10 05:37:49;;;;;;;42.03;24.63;;;;;;;-2.21;81.71;95645.48;1762959;80;21096;-83
2020/12/10 05:40:15;;;;;;;39.13;21.95;;;;;;;-2.21;81.87;95645.48;1753139;80;21128;-84
2020/12/10 05:42:45;;;;;;;43.08;23.32;;;;;;;-2.20;81.78;95647.91;1762460;80;21085;-84
2020/12/10 05:45:15;;;;;;;43.48;24.15;;;;;;;-2.16;81.80;95644.64;1753005;80;21114;-85
2020/12/10 05:47:54;;;;;;;44.90;25.60;;;;;;;-2.10;81.82;95644.17;1764869;80;21301;-83
2020/12/10 05:50:26;;;;;;;43.28;25.45;;;;;;;-2.08;81.72;95643.59;1758294;80;21400;-83
2020/12/10 05:53:13;;;;;;;16.57;8.60;;;;;;;-2.12;81.66;95646.85;1765852;80;21233;-85
2020/12/10 05:55:42;;;;;;;41.23;23.47;;;;;;;-2.18;81.58;95637.14;1767532;80;21137;-84
2020/12/10 05:58:09;;;;;;;39.70;24.65;;;;;;;-2.29;81.51;95646.54;1760864;80;21248;-84
2020/12/10 06:00:35;;;;;;;30.97;17.87;;;;;;;-2.36;81.68;95641.14;1760450;80;21451;-83
2020/12/10 06:03:01;;;;;;;37.50;20.68;;;;;;;-2.36;82.03;95642.41;1757303;80;21124;-83
2020/12/10 06:05:28;;;;;;;38.08;22.45;;;;;;;-2.42;82.04;95641.16;1763400;80;21399;-84
2020/12/10 06:08:08;;;;;;;39.25;22.35;;;;;;;-2.52;82.07;95635.17;1761970;80;21117;-83
2020/12/10 06:10:40;;;;;;;38.95;22.80;;;;;;;-2.52;82.23;95647.08;1753570;80;21120;-83
2020/12/10 06:13:07;;;;;;;42.95;22.22;;;;;;;-2.47;82.33;95640.70;1756326;80;21117;-84
2020/12/10 06:15:34;;;;;;;46.85;24.37;;;;;;;-2.45;82.57;95647.74;1772099;80;21110;-83
2020/12/10 06:18:15;;;;;;;38.73;20.82;;;;;;;-2.43;82.36;95647.19;1706160;82;21265;-83
2020/12/10 06:20:44;;;;;;;42.25;24.72;;;;;;;-2.48;82.50;95646.72;1751246;81;21082;-84
2020/12/10 06:23:33;;;;;;;39.35;20.88;;;;;;;-2.52;82.46;95640.72;1763438;81;21114;-84
2020/12/10 06:26:06;;;;;;;43.85;23.77;;;;;;;-2.50;82.58;95632.04;1758845;81;21107;-84
2020/12/10 06:28:32;;;;;;;42.05;22.35;;;;;;;-2.46;82.55;95631.33;1731085;81;21336;-84
2020/12/10 06:31:06;;;;;;;37.08;21.68;;;;;;;-2.45;82.57;95628.66;1762974;80;21106;-83
2020/12/10 06:33:38;;;;;;;41.92;21.15;;;;;;;-2.38;82.46;95628.20;1761203;80;21101;-83
2020/12/10 06:36:25;;;;;;;42.98;24.72;;;;;;;-2.43;82.30;95626.02;1754749;80;21242;-85
2020/12/10 06:38:55;;;;;;;40.65;22.65;;;;;;;-2.39;82.44;95621.50;1746070;81;21136;-84
2020/12/10 06:41:22;;;;;;;43.75;24.57;;;;;;;-2.32;82.57;95623.89;1765778;81;21107;-85
2020/12/10 06:43:48;;;;;;;38.95;23.27;;;;;;;-2.32;82.30;95622.15;1758796;81;21107;-84
2020/12/10 06:46:14;;;;;;;44.23;24.15;;;;;;;-2.27;82.29;95624.35;1765756;80;21130;-85
2020/12/10 06:48:49;;;;;;;39.58;22.52;;;;;;;-2.34;82.21;95623.20;1761932;80;21130;-85
2020/12/10 06:51:18;;;;;;;43.73;25.45;;;;;;;-2.35;82.28;95632.58;1760922;80;21109;-85
2020/12/10 06:54:07;;;;;;;42.10;24.10;;;;;;;-2.36;82.32;95629.69;1748712;81;21155;-84
2020/12/10 06:56:55;;;;;;;32.13;19.15;;;;;;;-2.34;82.23;95626.55;1712887;82;21653;-85
2020/12/10 06:59:42;;;;;;;46.15;25.80;;;;;;;-2.29;82.35;95630.00;1749368;80;21248;-85
2020/12/10 07:02:16;;;;;;;46.05;25.10;;;;;;;-2.33;82.32;95629.91;1759881;80;21329;-85
2020/12/10 07:04:48;;;;;;;47.48;27.22;;;;;;;-2.25;82.53;95628.85;1754608;80;21130;-85
2020/12/10 07:07:20;;;;;;;47.35;24.57;;;;;;;-2.22;82.44;95623.05;1764836;80;21138;-86
2020/12/10 07:09:55;;;;;;;46.35;24.82;;;;;;;-2.20;82.35;95623.73;1720599;82;21354;-85
2020/12/10 07:12:27;;;;;;;47.15;26.80;;;;;;;-2.15;82.33;95616.99;1754900;80;21152;-85
2020/12/10 07:15:22;;;;;;;52.80;31.73;;;;;;;-2.16;82.21;95611.56;1766301;80;21317;-84
2020/12/10 07:17:48;;;;;;;48.02;25.55;;;;;;;-2.23;82.23;95609.98;1769581;80;21113;-86
2020/12/10 07:20:14;;;;;;;38.55;22.75;;;;;;;-2.22;82.37;95605.70;1739055;81;21126;-85
2020/12/10 07:22:41;;;;;;;51.90;27.87;;;;;;;-2.18;82.63;95612.95;1758955;80;21146;-86
2020/12/10 07:25:07;;;;;;;51.80;28.20;;;;;;;-2.22;82.34;95604.42;1756916;80;21117;-87
2020/12/10 07:27:33;;;;;;;47.15;25.23;;;;;;;-2.19;82.47;95604.17;1775102;80;21125;-86
2020/12/10 07:29:59;;;;;;;49.63;26.48;;;;;;;-2.14;82.45;95602.06;1761377;80;21319;-87
2020/12/10 07:32:25;;;;;;;48.40;26.62;;;;;;;-2.12;82.34;95593.40;1775011;80;21129;-85
2020/12/10 07:34:51;;;;;;;39.35;24.35;;;;;;;-2.07;82.37;95594.76;1774007;80;21082;-86
2020/12/10 07:37:30;;;;;;;42.53;25.45;;;;;;;-2.05;82.23;95600.06;1776215;80;21070;-86
2020/12/10 07:39:53;;;;;;;41.33;24.55;;;;;;;-2.06;82.08;95597.17;1775363;80;21102;-86
2020/12/10 07:42:19;;;;;;;43.73;23.95;;;;;;;-2.05;82.21;95594.97;1777327;80;21321;-86
2020/12/10 07:44:46;;;;;;;41.18;24.02;;;;;;;-2.04;82.18;95596.58;1771614;80;21114;-87
2020/12/10 07:47:13;;;;;;;40.30;21.42;;;;;;;-2.02;82.17;95593.45;1766288;80;21352;-86
2020/12/10 07:49:39;;;;;;;38.08;21.35;;;;;;;-1.98;82.21;95592.73;1774868;80;21147;-87
2020/12/10 07:52:10;;;;;;;37.70;21.30;;;;;;;-1.94;82.08;95602.56;1772596;80;21121;-87
2020/12/10 07:54:49;;;;;;;35.25;21.17;;;;;;;-1.90;81.93;95596.75;1761567;80;21242;-86
2020/12/10 07:57:35;;;;;;;34.40;19.52;;;;;;;-1.87;82.01;95588.39;1692628;83;21648;-86
2020/12/10 08:00:11;;;;;;;35.48;20.02;;;;;;;-1.81;81.97;95586.60;1763577;80;21086;-86
2020/12/10 08:02:59;;;;;;;33.33;19.95;;;;;;;-1.76;81.87;95586.72;1772025;80;21125;-85
2020/12/10 08:05:30;;;;;;;37.95;22.22;;;;;;;-1.73;81.88;95585.19;1749488;81;21400;-85
2020/12/10 08:07:56;;;;;;;36.25;19.52;;;;;;;-1.72;81.73;95582.51;1712624;81;21110;-85
2020/12/10 08:10:29;;;;;;;34.20;20.60;;;;;;;-1.69;81.59;95585.27;1752194;81;21247;-87
2020/12/10 08:13:17;;;;;;;33.65;20.10;;;;;;;-1.68;81.55;95581.31;1735712;81;21256;-85
2020/12/10 08:15:47;;;;;;;33.40;19.80;;;;;;;-1.66;81.60;95579.45;1751160;80;21117;-88
2020/12/10 08:18:17;;;;;;;23.38;14.25;;;;;;;-1.64;81.65;95573.76;1747434;80;21134;-85
2020/12/10 08:20:51;;;;;;;32.13;18.32;;;;;;;-1.59;81.33;95573.40;1746661;80;21173;-85
2020/12/10 08:23:19;;;;;;;32.58;19.77;;;;;;;-1.64;81.38;95571.67;1737615;81;21118;-84
2020/12/10 08:25:48;;;;;;;35.95;22.07;;;;;;;-1.65;81.46;95570.88;1743004;80;21374;-85
2020/12/10 08:28:16;;;;;;;32.98;20.60;;;;;;;-1.67;81.37;95571.47;1753625;80;21151;-85
2020/12/10 08:30:52;;;;;;;38.95;21.35;;;;;;;-1.66;81.35;95573.55;1746186;80;21754;-86
2020/12/10 08:33:21;;;;;;;41.33;22.98;;;;;;;-1.69;81.29;95577.63;1757560;80;21518;-84
2020/12/10 08:35:47;;;;;;;38.02;21.15;;;;;;;-1.70;81.37;95571.72;1749712;80;21138;-86
2020/12/10 08:38:13;;;;;;;36.20;20.80;;;;;;;-1.67;81.58;95565.10;1754110;80;21136;-85
2020/12/10 08:40:39;;;;;;;31.17;20.65;;;;;;;-1.68;81.31;95567.31;1756474;80;21110;-86
2020/12/10 08:43:15;;;;;;;35.78;21.00;;;;;;;-1.69;81.37;95569.52;1743758;81;21250;-86
2020/12/10 08:48:28;;;;;;;35.45;21.02;;;;;;;-1.69;81.38;95566.97;1807937;79;23978;-85
2020/12/10 08:50:57;;;;;;;34.13;21.70;;;;;;;-1.70;81.39;95562.00;1774808;80;21105;-84
2020/12/10 08:53:24;;;;;;;32.40;20.70;;;;;;;-1.67;81.52;95555.38;1774595;79;21224;-85
2020/12/10 08:55:55;;;;;;;35.88;21.40;;;;;;;-1.64;81.30;95560.22;1777393;79;21132;-83
2020/12/10 08:58:28;;;;;;;38.90;23.12;;;;;;;-1.68;81.31;95556.31;1789049;79;21308;-83
2020/12/10 09:00:59;;;;;;;37.85;24.23;;;;;;;-1.66;81.31;95547.61;1790988;80;21141;-82
2020/12/10 09:03:27;;;;;;;40.92;23.90;;;;;;;-1.68;81.37;95542.30;1774944;79;21228;-83
2020/12/10 09:05:56;;;;;;;38.95;22.07;;;;;;;-1.64;81.34;95544.93;1777182;79;21419;-82
2020/12/10 09:08:22;;;;;;;38.90;22.45;;;;;;;-1.63;81.35;95538.90;1742928;80;21106;-83
2020/12/10 09:10:49;;;;;;;37.30;23.05;;;;;;;-1.60;81.20;95541.22;1729049;81;21152;-83
2020/12/10 09:13:16;;;;;;;31.35;20.10;;;;;;;-1.61;81.25;95539.61;1752503;81;21134;-82
2020/12/10 09:15:51;;;;;;;35.85;23.80;;;;;;;-1.60;81.08;95539.47;1735249;81;21415;-82
2020/12/10 09:18:18;;;;;;;31.05;18.92;;;;;;;-1.62;81.03;95545.64;1733391;81;21134;-82
2020/12/10 09:20:46;;;;;;;35.68;21.23;;;;;;;-1.55;81.22;95540.36;1755209;81;21247;-83
2020/12/10 09:23:14;;;;;;;39.95;24.18;;;;;;;-1.59;81.01;95537.73;1751671;81;21126;-83
2020/12/10 09:25:44;;;;;;;34.48;22.93;;;;;;;-1.56;81.03;95529.36;1751208;81;21123;-84
2020/12/10 09:28:10;;;;;;;33.45;20.05;;;;;;;-1.51;81.17;95525.95;1737216;81;21127;-84
2020/12/10 09:30:37;;;;;;;38.00;22.62;;;;;;;-1.51;81.05;95531.05;1753128;81;21405;-84
2020/12/10 09:33:04;;;;;;;39.00;24.77;;;;;;;-1.46;81.07;95527.33;1754293;81;21093;-84
2020/12/10 09:35:31;;;;;;;33.92;22.93;;;;;;;-1.41;80.99;95526.47;1742645;81;21114;-85
2020/12/10 09:38:01;;;;;;;38.73;24.75;;;;;;;-1.35;80.94;95526.74;1743289;81;21086;-84
2020/12/10 09:40:26;;;;;;;44.90;27.07;;;;;;;-1.34;80.98;95519.91;1741972;81;21232;-86
2020/12/10 09:42:52;;;;;;;44.05;25.82;;;;;;;-1.31;81.09;95512.00;1696239;82;21285;-85
2020/12/10 09:45:18;;;;;;;39.25;24.57;;;;;;;-1.27;81.03;95514.17;1712372;83;21128;-84
2020/12/10 09:47:46;;;;;;;34.58;22.27;;;;;;;-1.24;81.07;95507.53;1705648;82;21127;-85
2020/12/10 09:50:24;;;;;;;43.08;25.95;;;;;;;-1.22;80.78;95508.67;1692739;83;21130;-85
2020/12/10 09:52:57;;;;;;;41.13;23.57;;;;;;;-1.32;80.59;95507.37;1708133;83;21344;-85
2020/12/10 09:58:04;;;;;;;30.02;18.48;;;;;;;-1.45;80.66;95514.93;1746422;80;21087;-83
2020/12/10 10:00:31;;;;;;;40.67;25.77;;;;;;;-1.48;80.67;95499.41;1694849;84;21133;-84
2020/12/10 10:02:58;;;;;;;41.70;24.15;;;;;;;-1.47;80.93;95498.94;1772548;81;21110;-84
2020/12/10 10:05:29;;;;;;;31.65;19.92;;;;;;;-1.41;81.24;95501.79;1764431;80;21123;-84
2020/12/10 10:08:03;;;;;;;45.38;29.07;;;;;;;-1.35;80.92;95499.98;1730458;82;21130;-84
2020/12/10 10:10:32;;;;;;;42.13;27.70;;;;;;;-1.33;81.10;95495.56;1775400;80;21134;-84
2020/12/10 10:12:59;;;;;;;30.40;19.87;;;;;;;-1.25;80.91;95493.65;1740071;82;21440;-84
2020/12/10 10:15:26;;;;;;;43.17;26.40;;;;;;;-1.18;80.95;95494.73;1752204;80;21309;-84
2020/12/10 10:17:53;;;;;;;43.95;25.85;;;;;;;-1.16;80.77;95490.30;1753900;80;21100;-85
2020/12/10 10:20:19;;;;;;;32.50;20.50;;;;;;;-1.13;80.37;95482.41;1758816;80;21113;-85
2020/12/10 10:25:24;;;;;;;36.85;24.45;;;;;;;-0.99;80.60;95487.57;1803730;77;23881;-82
2020/12/10 10:27:50;;;;;;;41.50;27.75;;;;;;;-0.90;80.40;95484.23;1800831;78;21105;-82
2020/12/10 10:30:18;;;;;;;38.73;22.90;;;;;;;-0.84;80.45;95482.42;1821637;78;21074;-83
2020/12/10 10:32:44;;;;;;;38.80;24.85;;;;;;;-0.82;80.08;95479.73;1820504;78;21222;-84
2020/12/10 10:35:10;;;;;;;41.23;27.73;;;;;;;-0.81;80.20;95473.72;1749865;80;21336;-85
2020/12/10 10:37:36;;;;;;;42.05;27.10;;;;;;;-0.74;80.51;95478.14;1748774;81;21093;-85
2020/12/10 10:40:04;;;;;;;43.28;26.62;;;;;;;-0.65;80.42;95474.79;1753804;81;21091;-86
2020/12/10 10:42:30;;;;;;;41.25;26.87;;;;;;;-0.63;80.22;95466.53;1747836;81;21109;-86
2020/12/10 10:44:56;;;;;;;44.00;26.05;;;;;;;-0.57;80.38;95466.92;1757692;81;21093;-86
2020/12/10 10:47:22;;;;;;;39.25;28.15;;;;;;;-0.55;80.04;95462.48;1764201;81;21785;-85
2020/12/10 10:49:48;;;;;;;37.55;24.60;;;;;;;-0.52;80.16;95464.28;1749659;81;21243;-85
2020/12/10 10:52:14;;;;;;;42.85;26.77;;;;;;;-0.48;79.76;95457.19;1752624;81;21239;-87
2020/12/10 10:54:44;;;;;;;40.20;26.10;;;;;;;-0.50;79.82;95457.30;1773637;81;21153;-87
2020/12/10 10:57:11;;;;;;;48.60;30.27;;;;;;;-0.59;79.16;95454.30;1745894;81;21120;-87
2020/12/10 10:59:39;;;;;;;48.23;32.00;;;;;;;-0.64;79.73;95455.19;1752493;81;21125;-87
2020/12/10 11:02:06;;;;;;;44.15;28.77;;;;;;;-0.62;79.80;95452.02;1773604;81;21344;-87
2020/12/10 11:04:37;;;;;;;48.80;31.37;;;;;;;-0.55;80.02;95454.83;1757629;81;21101;-87
2020/12/10 11:07:05;;;;;;;47.08;30.70;;;;;;;-0.56;79.81;95450.19;1766260;81;21144;-87
2020/12/10 11:09:32;;;;;;;47.58;32.40;;;;;;;-0.56;79.81;95450.19;1753577;81;21138;-87
2020/12/10 11:11:58;;;;;;;48.55;32.40;;;;;;;-0.61;79.60;95453.63;1749083;81;21085;-87
2020/12/10 11:14:25;;;;;;;43.98;30.97;;;;;;;-0.63;79.76;95456.32;1757662;81;21129;-88
2020/12/10 11:16:56;;;;;;;50.65;32.17;;;;;;;-0.56;79.93;95442.54;1768763;81;21133;-86
2020/12/10 11:19:19;;;;;;;47.90;31.20;;;;;;;-0.51;79.89;95441.65;1776328;81;21124;-87
2020/12/10 11:21:47;;;;;;;52.53;33.45;;;;;;;-0.44;79.99;95438.91;1756005;81;21140;-86
2020/12/10 11:24:13;;;;;;;51.30;32.78;;;;;;;-0.41;80.01;95431.44;1754022;81;21116;-85
2020/12/10 11:26:40;;;;;;;53.10;32.70;;;;;;;-0.43;79.85;95431.58;1756951;81;21228;-87
2020/12/10 11:29:06;;;;;;;47.78;31.42;;;;;;;-0.44;79.76;95430.44;1741998;81;21263;-85
2020/12/10 11:31:32;;;;;;;33.20;20.17;;;;;;;-0.45;79.73;95426.28;1766689;81;21129;-86